sensor_id;sensor_type;location;lat;lon;timestamp;temperature;humidity
34815;DHT22;21030;53.912;15.214;2023-01-15T00:02:21;21.30;43.90
34815;DHT22;21030;53.912;15.214;2023-01-15T00:04:50;21.80;42.50
34815;DHT22;21030;53.912;15.214;2023-01-15T00:07:17;21.80;42.40
34815;DHT22;21030;53.912;15.214;2023-01-15T00:09:44;21.60;42.90
34815;DHT22;21030;53.912;15.214;2023-01-15T00:12:11;21.50;43.30
34815;DHT22;21030;53.912;15.214;2023-01-15T00:14:38;21.20;43.60
34815;DHT22;21030;53.912;15.214;2023-01-15T00:17:05;21.40;43.60
34815;DHT22;21030;53.912;15.214;2023-01-15T00:19:32;21.70;42.90
34815;DHT22;21030;53.912;15.214;2023-01-15T00:21:59;22.20;41.50
34815;DHT22;21030;53.912;15.214;2023-01-15T00:24:26;21.40;43.00
34815;DHT22;21030;53.912;15.214;2023-01-15T00:27:12;21.50;43.50
34815;DHT22;21030;53.912;15.214;2023-01-15T00:29:58;21.80;42.70
34815;DHT22;21030;53.912;15.214;2023-01-15T00:32:25;20.90;43.90
34815;DHT22;21030;53.912;15.214;2023-01-15T00:34:53;21.10;44.10
34815;DHT22;21030;53.912;15.214;2023-01-15T00:37:20;20.60;44.80
34815;DHT22;21030;53.912;15.214;2023-01-15T00:39:47;21.00;44.60
34815;DHT22;21030;53.912;15.214;2023-01-15T00:42:16;21.20;44.20
34815;DHT22;21030;53.912;15.214;2023-01-15T00:44:43;21.50;43.70
34815;DHT22;21030;53.912;15.214;2023-01-15T00:47:10;21.60;43.40
34815;DHT22;21030;53.912;15.214;2023-01-15T00:49:41;21.50;43.60
34815;DHT22;21030;53.912;15.214;2023-01-15T00:52:09;21.90;42.90
34815;DHT22;21030;53.912;15.214;2023-01-15T00:54:36;22.50;42.20
34815;DHT22;21030;53.912;15.214;2023-01-15T00:57:04;22.50;41.70
34815;DHT22;21030;53.912;15.214;2023-01-15T00:59:31;22.10;42.10
34815;DHT22;21030;53.912;15.214;2023-01-15T01:01:58;21.90;42.70
34815;DHT22;21030;53.912;15.214;2023-01-15T01:04:25;22.20;42.20
34815;DHT22;21030;53.912;15.214;2023-01-15T01:06:52;21.80;43.90
34815;DHT22;21030;53.912;15.214;2023-01-15T01:09:20;21.70;43.00
34815;DHT22;21030;53.912;15.214;2023-01-15T01:11:49;22.20;43.10
34815;DHT22;21030;53.912;15.214;2023-01-15T01:14:16;22.20;42.00
34815;DHT22;21030;53.912;15.214;2023-01-15T01:16:43;21.60;42.90
34815;DHT22;21030;53.912;15.214;2023-01-15T01:19:18;21.90;43.50
34815;DHT22;21030;53.912;15.214;2023-01-15T01:21:47;21.80;43.20
34815;DHT22;21030;53.912;15.214;2023-01-15T01:24:18;21.60;43.40
34815;DHT22;21030;53.912;15.214;2023-01-15T01:26:46;22.10;43.40
34815;DHT22;21030;53.912;15.214;2023-01-15T01:29:18;21.80;43.60
34815;DHT22;21030;53.912;15.214;2023-01-15T01:31:46;21.50;43.50
34815;DHT22;21030;53.912;15.214;2023-01-15T01:34:14;21.60;44.00
34815;DHT22;21030;53.912;15.214;2023-01-15T01:36:42;22.00;43.50
34815;DHT22;21030;53.912;15.214;2023-01-15T01:39:15;22.10;42.60
34815;DHT22;21030;53.912;15.214;2023-01-15T01:41:43;21.90;43.30
34815;DHT22;21030;53.912;15.214;2023-01-15T01:47:04;22.80;42.30
34815;DHT22;21030;53.912;15.214;2023-01-15T01:49:34;22.30;42.00
34815;DHT22;21030;53.912;15.214;2023-01-15T01:52:07;22.00;42.80
34815;DHT22;21030;53.912;15.214;2023-01-15T01:54:35;22.10;43.60
34815;DHT22;21030;53.912;15.214;2023-01-15T01:57:05;22.10;42.90
34815;DHT22;21030;53.912;15.214;2023-01-15T01:59:33;22.70;42.30
34815;DHT22;21030;53.912;15.214;2023-01-15T02:02:00;22.60;41.70
34815;DHT22;21030;53.912;15.214;2023-01-15T02:04:28;22.80;41.80
34815;DHT22;21030;53.912;15.214;2023-01-15T02:06:58;22.70;41.40
34815;DHT22;21030;53.912;15.214;2023-01-15T02:09:26;23.20;41.60
34815;DHT22;21030;53.912;15.214;2023-01-15T02:11:56;23.10;40.60
34815;DHT22;21030;53.912;15.214;2023-01-15T02:14:54;23.40;40.70
34815;DHT22;21030;53.912;15.214;2023-01-15T02:17:38;23.00;40.80
34815;DHT22;21030;53.912;15.214;2023-01-15T02:28:32;22.80;41.00
34815;DHT22;21030;53.912;15.214;2023-01-15T02:30:59;23.20;41.10
34815;DHT22;21030;53.912;15.214;2023-01-15T02:33:36;23.20;40.80
34815;DHT22;21030;53.912;15.214;2023-01-15T02:36:07;23.20;40.90
34815;DHT22;21030;53.912;15.214;2023-01-15T02:38:39;23.70;40.30
34815;DHT22;21030;53.912;15.214;2023-01-15T02:41:09;23.80;39.30
34815;DHT22;21030;53.912;15.214;2023-01-15T02:43:45;23.10;41.10
34815;DHT22;21030;53.912;15.214;2023-01-15T02:46:14;22.90;41.10
34815;DHT22;21030;53.912;15.214;2023-01-15T02:48:45;23.10;41.40
34815;DHT22;21030;53.912;15.214;2023-01-15T02:51:21;23.10;40.60
34815;DHT22;21030;53.912;15.214;2023-01-15T02:53:51;22.40;42.50
34815;DHT22;21030;53.912;15.214;2023-01-15T02:56:23;23.10;42.00
34815;DHT22;21030;53.912;15.214;2023-01-15T02:58:54;22.80;41.30
34815;DHT22;21030;53.912;15.214;2023-01-15T03:01:46;23.10;41.30
34815;DHT22;21030;53.912;15.214;2023-01-15T03:04:38;23.70;40.00
34815;DHT22;21030;53.912;15.214;2023-01-15T03:07:42;23.30;40.50
34815;DHT22;21030;53.912;15.214;2023-01-15T03:10:11;23.40;40.80
34815;DHT22;21030;53.912;15.214;2023-01-15T03:12:53;22.90;41.50
34815;DHT22;21030;53.912;15.214;2023-01-15T03:16:02;23.40;41.20
34815;DHT22;21030;53.912;15.214;2023-01-15T03:18:55;22.80;41.60
34815;DHT22;21030;53.912;15.214;2023-01-15T03:21:36;22.70;42.00
34815;DHT22;21030;53.912;15.214;2023-01-15T03:24:06;22.40;42.70
34815;DHT22;21030;53.912;15.214;2023-01-15T03:26:35;22.40;42.90
34815;DHT22;21030;53.912;15.214;2023-01-15T03:29:04;22.50;42.70
34815;DHT22;21030;53.912;15.214;2023-01-15T03:31:34;22.00;43.00
34815;DHT22;21030;53.912;15.214;2023-01-15T03:34:02;22.10;43.30
34815;DHT22;21030;53.912;15.214;2023-01-15T03:36:29;21.80;44.10
34815;DHT22;21030;53.912;15.214;2023-01-15T03:38:57;21.90;43.70
34815;DHT22;21030;53.912;15.214;2023-01-15T03:44:34;22.30;44.20
34815;DHT22;21030;53.912;15.214;2023-01-15T03:47:10;21.90;44.10
34815;DHT22;21030;53.912;15.214;2023-01-15T03:50:04;22.50;43.60
34815;DHT22;21030;53.912;15.214;2023-01-15T03:55:20;25.20;38.90
34815;DHT22;21030;53.912;15.214;2023-01-15T03:58:44;24.80;38.10
34815;DHT22;21030;53.912;15.214;2023-01-15T04:01:15;25.90;37.90
34815;DHT22;21030;53.912;15.214;2023-01-15T04:03:45;26.90;35.80
34815;DHT22;21030;53.912;15.214;2023-01-15T04:06:14;25.20;36.40
34815;DHT22;21030;53.912;15.214;2023-01-15T04:08:43;24.70;38.30
34815;DHT22;21030;53.912;15.214;2023-01-15T04:11:11;25.00;37.40
34815;DHT22;21030;53.912;15.214;2023-01-15T04:13:38;25.10;37.40
34815;DHT22;21030;53.912;15.214;2023-01-15T04:16:05;26.70;35.80
34815;DHT22;21030;53.912;15.214;2023-01-15T04:18:33;27.00;35.30
34815;DHT22;21030;53.912;15.214;2023-01-15T04:21:00;28.20;33.20
34815;DHT22;21030;53.912;15.214;2023-01-15T04:23:26;27.40;33.50
34815;DHT22;21030;53.912;15.214;2023-01-15T04:25:53;27.70;33.70
34815;DHT22;21030;53.912;15.214;2023-01-15T04:28:20;28.10;33.00
34815;DHT22;21030;53.912;15.214;2023-01-15T04:30:47;27.30;32.20
34815;DHT22;21030;53.912;15.214;2023-01-15T04:33:15;25.80;31.50
34815;DHT22;21030;53.912;15.214;2023-01-15T04:35:41;25.10;33.10
34815;DHT22;21030;53.912;15.214;2023-01-15T04:38:08;25.00;32.50
34815;DHT22;21030;53.912;15.214;2023-01-15T04:40:35;24.20;33.40
34815;DHT22;21030;53.912;15.214;2023-01-15T04:43:21;24.50;32.40
34815;DHT22;21030;53.912;15.214;2023-01-15T04:46:06;24.40;32.30
34815;DHT22;21030;53.912;15.214;2023-01-15T04:48:33;26.20;31.20
34815;DHT22;21030;53.912;15.214;2023-01-15T04:51:04;27.20;29.90
34815;DHT22;21030;53.912;15.214;2023-01-15T04:53:31;26.60;29.30
34815;DHT22;21030;53.912;15.214;2023-01-15T04:56:03;26.90;29.80
34815;DHT22;21030;53.912;15.214;2023-01-15T04:58:31;27.20;29.20
34815;DHT22;21030;53.912;15.214;2023-01-15T05:00:58;26.50;29.30
34815;DHT22;21030;53.912;15.214;2023-01-15T05:03:27;26.00;30.40
34815;DHT22;21030;53.912;15.214;2023-01-15T05:05:55;25.80;30.00
34815;DHT22;21030;53.912;15.214;2023-01-15T05:08:26;25.60;30.00
34815;DHT22;21030;53.912;15.214;2023-01-15T05:10:54;25.30;30.00
34815;DHT22;21030;53.912;15.214;2023-01-15T05:13:21;25.20;30.10
34815;DHT22;21030;53.912;15.214;2023-01-15T05:15:48;25.40;30.30
34815;DHT22;21030;53.912;15.214;2023-01-15T05:18:15;26.00;30.10
34815;DHT22;21030;53.912;15.214;2023-01-15T05:20:42;25.80;30.00
34815;DHT22;21030;53.912;15.214;2023-01-15T05:23:09;26.20;29.80
34815;DHT22;21030;53.912;15.214;2023-01-15T05:25:36;25.10;30.10
34815;DHT22;21030;53.912;15.214;2023-01-15T05:28:03;25.60;30.50
34815;DHT22;21030;53.912;15.214;2023-01-15T05:30:30;26.80;29.60
34815;DHT22;21030;53.912;15.214;2023-01-15T05:32:57;27.90;28.60
34815;DHT22;21030;53.912;15.214;2023-01-15T05:35:24;27.20;28.10
34815;DHT22;21030;53.912;15.214;2023-01-15T05:37:52;26.00;28.90
34815;DHT22;21030;53.912;15.214;2023-01-15T05:40:19;26.30;29.10
34815;DHT22;21030;53.912;15.214;2023-01-15T05:42:46;26.30;29.20
34815;DHT22;21030;53.912;15.214;2023-01-15T05:45:13;25.90;29.80
34815;DHT22;21030;53.912;15.214;2023-01-15T05:47:40;26.70;29.20
34815;DHT22;21030;53.912;15.214;2023-01-15T05:50:07;26.80;28.60
34815;DHT22;21030;53.912;15.214;2023-01-15T05:52:35;27.60;28.50
34815;DHT22;21030;53.912;15.214;2023-01-15T05:55:02;27.10;28.10
34815;DHT22;21030;53.912;15.214;2023-01-15T05:57:29;27.30;28.50
34815;DHT22;21030;53.912;15.214;2023-01-15T05:59:58;26.30;28.70
34815;DHT22;21030;53.912;15.214;2023-01-15T06:02:25;25.70;29.50
34815;DHT22;21030;53.912;15.214;2023-01-15T06:04:52;25.50;29.70
34815;DHT22;21030;53.912;15.214;2023-01-15T06:07:19;25.30;29.90
34815;DHT22;21030;53.912;15.214;2023-01-15T06:09:46;24.90;30.20
34815;DHT22;21030;53.912;15.214;2023-01-15T06:12:13;25.00;30.50
34815;DHT22;21030;53.912;15.214;2023-01-15T06:14:40;24.60;30.50
34815;DHT22;21030;53.912;15.214;2023-01-15T06:17:07;24.50;31.00
34815;DHT22;21030;53.912;15.214;2023-01-15T06:19:34;24.30;31.70
34815;DHT22;21030;53.912;15.214;2023-01-15T06:22:01;24.90;31.30
34815;DHT22;21030;53.912;15.214;2023-01-15T06:24:29;25.10;30.50
34815;DHT22;21030;53.912;15.214;2023-01-15T06:26:56;24.30;31.40
34815;DHT22;21030;53.912;15.214;2023-01-15T06:29:23;24.00;32.00
34815;DHT22;21030;53.912;15.214;2023-01-15T06:31:50;24.30;32.20
34815;DHT22;21030;53.912;15.214;2023-01-15T06:34:17;24.00;32.00
34815;DHT22;21030;53.912;15.214;2023-01-15T06:36:44;24.80;31.80
34815;DHT22;21030;53.912;15.214;2023-01-15T06:39:12;26.20;30.20
34815;DHT22;21030;53.912;15.214;2023-01-15T06:41:39;26.90;30.00
34815;DHT22;21030;53.912;15.214;2023-01-15T06:44:25;27.50;28.80
34815;DHT22;21030;53.912;15.214;2023-01-15T06:47:15;27.20;28.60
34815;DHT22;21030;53.912;15.214;2023-01-15T06:49:55;26.40;29.00
34815;DHT22;21030;53.912;15.214;2023-01-15T06:52:24;25.80;29.70
34815;DHT22;21030;53.912;15.214;2023-01-15T06:54:52;26.40;29.10
34815;DHT22;21030;53.912;15.214;2023-01-15T06:57:20;27.30;28.70
34815;DHT22;21030;53.912;15.214;2023-01-15T06:59:50;26.30;28.50
34815;DHT22;21030;53.912;15.214;2023-01-15T07:02:18;25.60;29.10
34815;DHT22;21030;53.912;15.214;2023-01-15T07:04:47;26.50;29.10
34815;DHT22;21030;53.912;15.214;2023-01-15T07:07:15;26.90;28.10
34815;DHT22;21030;53.912;15.214;2023-01-15T07:09:43;26.90;28.00
34815;DHT22;21030;53.912;15.214;2023-01-15T07:12:10;25.70;28.30
34815;DHT22;21030;53.912;15.214;2023-01-15T07:14:37;25.00;29.30
34815;DHT22;21030;53.912;15.214;2023-01-15T07:17:04;25.20;29.60
34815;DHT22;21030;53.912;15.214;2023-01-15T07:19:31;25.70;29.40
34815;DHT22;21030;53.912;15.214;2023-01-15T07:21:58;26.30;29.00
34815;DHT22;21030;53.912;15.214;2023-01-15T07:24:26;26.00;28.70
34815;DHT22;21030;53.912;15.214;2023-01-15T07:26:53;25.90;29.10
34815;DHT22;21030;53.912;15.214;2023-01-15T07:29:20;25.10;29.30
34815;DHT22;21030;53.912;15.214;2023-01-15T07:31:47;24.20;30.50
34815;DHT22;21030;53.912;15.214;2023-01-15T07:34:14;23.70;31.40
34815;DHT22;21030;53.912;15.214;2023-01-15T07:36:42;24.70;31.30
34815;DHT22;21030;53.912;15.214;2023-01-15T07:39:09;25.80;30.00
34815;DHT22;21030;53.912;15.214;2023-01-15T07:41:37;26.20;29.30
34815;DHT22;21030;53.912;15.214;2023-01-15T07:44:23;27.40;28.40
34815;DHT22;21030;53.912;15.214;2023-01-15T07:49:59;24.20;30.20
34815;DHT22;21030;53.912;15.214;2023-01-15T07:52:27;22.90;32.90
34815;DHT22;21030;53.912;15.214;2023-01-15T07:54:54;22.50;33.70
34815;DHT22;21030;53.912;15.214;2023-01-15T07:57:21;22.80;34.20
34815;DHT22;21030;53.912;15.214;2023-01-15T07:59:49;23.10;33.20
34815;DHT22;21030;53.912;15.214;2023-01-15T08:02:17;24.00;32.40
34815;DHT22;21030;53.912;15.214;2023-01-15T08:04:44;23.90;32.10
34815;DHT22;21030;53.912;15.214;2023-01-15T08:07:14;24.00;31.90
34815;DHT22;21030;53.912;15.214;2023-01-15T08:09:41;24.00;31.80
34815;DHT22;21030;53.912;15.214;2023-01-15T08:12:09;24.10;31.60
34815;DHT22;21030;53.912;15.214;2023-01-15T08:14:55;24.00;32.30
34815;DHT22;21030;53.912;15.214;2023-01-15T08:17:48;23.80;31.70
34815;DHT22;21030;53.912;15.214;2023-01-15T08:20:22;23.90;32.00
34815;DHT22;21030;53.912;15.214;2023-01-15T08:22:49;23.50;31.90
34815;DHT22;21030;53.912;15.214;2023-01-15T08:25:19;23.90;32.20
34815;DHT22;21030;53.912;15.214;2023-01-15T08:27:46;23.80;32.10
34815;DHT22;21030;53.912;15.214;2023-01-15T08:30:16;24.20;31.90
34815;DHT22;21030;53.912;15.214;2023-01-15T08:32:43;24.20;32.00
34815;DHT22;21030;53.912;15.214;2023-01-15T08:35:10;23.70;31.90
34815;DHT22;21030;53.912;15.214;2023-01-15T08:37:40;23.80;32.30
34815;DHT22;21030;53.912;15.214;2023-01-15T08:40:08;23.70;32.40
34815;DHT22;21030;53.912;15.214;2023-01-15T08:42:36;23.70;32.10
34815;DHT22;21030;53.912;15.214;2023-01-15T08:45:03;24.10;31.80
34815;DHT22;21030;53.912;15.214;2023-01-15T08:47:30;23.80;31.70
34815;DHT22;21030;53.912;15.214;2023-01-15T08:49:58;23.40;32.00
34815;DHT22;21030;53.912;15.214;2023-01-15T08:52:25;23.00;32.70
34815;DHT22;21030;53.912;15.214;2023-01-15T08:54:52;22.30;33.80
34815;DHT22;21030;53.912;15.214;2023-01-15T08:57:19;22.70;34.20
34815;DHT22;21030;53.912;15.214;2023-01-15T08:59:47;23.10;33.30
34815;DHT22;21030;53.912;15.214;2023-01-15T09:02:14;23.60;32.80
34815;DHT22;21030;53.912;15.214;2023-01-15T09:04:41;23.50;32.20
34815;DHT22;21030;53.912;15.214;2023-01-15T09:07:09;23.60;32.40
34815;DHT22;21030;53.912;15.214;2023-01-15T09:09:36;23.20;32.10
34815;DHT22;21030;53.912;15.214;2023-01-15T09:12:03;23.40;32.60
34815;DHT22;21030;53.912;15.214;2023-01-15T09:14:30;23.20;32.50
34815;DHT22;21030;53.912;15.214;2023-01-15T09:17:17;23.40;32.30
34815;DHT22;21030;53.912;15.214;2023-01-15T09:19:45;22.80;32.50
34815;DHT22;21030;53.912;15.214;2023-01-15T09:22:12;22.00;33.70
34815;DHT22;21030;53.912;15.214;2023-01-15T09:24:39;22.50;34.40
34815;DHT22;21030;53.912;15.214;2023-01-15T09:27:06;22.90;33.40
34815;DHT22;21030;53.912;15.214;2023-01-15T09:29:33;22.70;33.20
34815;DHT22;21030;53.912;15.214;2023-01-15T09:32:00;22.60;33.40
34815;DHT22;21030;53.912;15.214;2023-01-15T09:34:28;22.30;33.70
34815;DHT22;21030;53.912;15.214;2023-01-15T09:36:55;21.90;34.40
34815;DHT22;21030;53.912;15.214;2023-01-15T09:39:22;21.60;34.80
34815;DHT22;21030;53.912;15.214;2023-01-15T09:47:59;23.40;32.50
34815;DHT22;21030;53.912;15.214;2023-01-15T09:50:39;22.70;33.70
34815;DHT22;21030;53.912;15.214;2023-01-15T09:53:13;22.40;33.50
34815;DHT22;21030;53.912;15.214;2023-01-15T09:55:48;21.80;34.20
34815;DHT22;21030;53.912;15.214;2023-01-15T09:58:19;21.50;35.40
34815;DHT22;21030;53.912;15.214;2023-01-15T10:00:49;21.70;35.30
34815;DHT22;21030;53.912;15.214;2023-01-15T10:03:55;22.60;34.10
34815;DHT22;21030;53.912;15.214;2023-01-15T10:08:48;23.10;32.70
34815;DHT22;21030;53.912;15.214;2023-01-15T10:14:09;22.20;33.40
34815;DHT22;21030;53.912;15.214;2023-01-15T10:16:39;22.00;35.10
34815;DHT22;21030;53.912;15.214;2023-01-15T10:19:08;21.80;34.30
34815;DHT22;21030;53.912;15.214;2023-01-15T10:21:57;21.60;35.10
34815;DHT22;21030;53.912;15.214;2023-01-15T10:24:38;21.70;35.80
34815;DHT22;21030;53.912;15.214;2023-01-15T10:27:19;21.80;35.80
34815;DHT22;21030;53.912;15.214;2023-01-15T10:30:14;20.90;35.70
34815;DHT22;21030;53.912;15.214;2023-01-15T10:32:51;20.50;37.00
34815;DHT22;21030;53.912;15.214;2023-01-15T10:36:14;20.70;37.30
34815;DHT22;21030;53.912;15.214;2023-01-15T10:38:28;20.80;36.80
34815;DHT22;21030;53.912;15.214;2023-01-15T10:47:00;20.90;37.40
34815;DHT22;21030;53.912;15.214;2023-01-15T10:49:29;20.50;37.10
34815;DHT22;21030;53.912;15.214;2023-01-15T10:52:02;19.80;38.50
34815;DHT22;21030;53.912;15.214;2023-01-15T10:54:46;20.20;38.30
34815;DHT22;21030;53.912;15.214;2023-01-15T11:00:24;20.90;37.60
34815;DHT22;21030;53.912;15.214;2023-01-15T11:03:01;20.70;36.90
34815;DHT22;21030;53.912;15.214;2023-01-15T11:05:34;20.70;37.20
34815;DHT22;21030;53.912;15.214;2023-01-15T11:08:04;21.30;36.60
34815;DHT22;21030;53.912;15.214;2023-01-15T11:10:52;20.60;37.10
34815;DHT22;21030;53.912;15.214;2023-01-15T11:13:22;21.00;37.30
34815;DHT22;21030;53.912;15.214;2023-01-15T11:16:17;21.50;36.30
34815;DHT22;21030;53.912;15.214;2023-01-15T11:19:09;21.40;35.90
34815;DHT22;21030;53.912;15.214;2023-01-15T11:21:58;20.90;37.10
34815;DHT22;21030;53.912;15.214;2023-01-15T11:24:27;21.00;37.40
34815;DHT22;21030;53.912;15.214;2023-01-15T11:26:54;21.70;36.40
34815;DHT22;21030;53.912;15.214;2023-01-15T11:29:35;21.20;36.40
34815;DHT22;21030;53.912;15.214;2023-01-15T11:32:03;21.00;36.70
34815;DHT22;21030;53.912;15.214;2023-01-15T11:34:55;20.60;37.60
34815;DHT22;21030;53.912;15.214;2023-01-15T11:37:26;21.00;37.30
34815;DHT22;21030;53.912;15.214;2023-01-15T11:39:58;21.80;36.40
34815;DHT22;21030;53.912;15.214;2023-01-15T11:42:32;21.50;35.90
34815;DHT22;21030;53.912;15.214;2023-01-15T11:45:19;21.80;36.10
34815;DHT22;21030;53.912;15.214;2023-01-15T11:48:22;21.70;35.50
34815;DHT22;21030;53.912;15.214;2023-01-15T11:51:14;20.90;36.50
34815;DHT22;21030;53.912;15.214;2023-01-15T11:56:18;20.90;37.30
34815;DHT22;21030;53.912;15.214;2023-01-15T11:58:52;21.10;36.10
34815;DHT22;21030;53.912;15.214;2023-01-15T12:01:26;21.00;36.50
34815;DHT22;21030;53.912;15.214;2023-01-15T12:03:58;21.30;36.20
34815;DHT22;21030;53.912;15.214;2023-01-15T12:06:27;22.00;35.70
34815;DHT22;21030;53.912;15.214;2023-01-15T12:09:07;22.10;34.40
34815;DHT22;21030;53.912;15.214;2023-01-15T12:11:45;22.60;34.00
34815;DHT22;21030;53.912;15.214;2023-01-15T12:14:35;22.60;33.40
34815;DHT22;21030;53.912;15.214;2023-01-15T12:23:01;23.10;33.30
34815;DHT22;21030;53.912;15.214;2023-01-15T12:25:52;22.30;33.60
34815;DHT22;21030;53.912;15.214;2023-01-15T12:28:26;22.70;33.50
34815;DHT22;21030;53.912;15.214;2023-01-15T12:36:09;21.80;34.70
34815;DHT22;21030;53.912;15.214;2023-01-15T12:41:44;22.50;34.70
34815;DHT22;21030;53.912;15.214;2023-01-15T12:44:39;22.70;33.10
34815;DHT22;21030;53.912;15.214;2023-01-15T12:50:51;22.60;33.00
34815;DHT22;21030;53.912;15.214;2023-01-15T12:53:38;21.90;33.80
34815;DHT22;21030;53.912;15.214;2023-01-15T13:01:44;22.80;32.80
34815;DHT22;21030;53.912;15.214;2023-01-15T13:06:57;22.00;33.70
34815;DHT22;21030;53.912;15.214;2023-01-15T13:09:41;21.70;33.90
34815;DHT22;21030;53.912;15.214;2023-01-15T13:12:12;21.10;34.90
34815;DHT22;21030;53.912;15.214;2023-01-15T13:14:40;21.10;34.90
34815;DHT22;21030;53.912;15.214;2023-01-15T13:17:17;21.30;35.10
34815;DHT22;21030;53.912;15.214;2023-01-15T13:22:44;20.90;35.00
34815;DHT22;21030;53.912;15.214;2023-01-15T13:28:25;21.00;35.30
34815;DHT22;21030;53.912;15.214;2023-01-15T13:33:43;20.80;35.60
34815;DHT22;21030;53.912;15.214;2023-01-15T13:36:26;21.10;35.50
34815;DHT22;21030;53.912;15.214;2023-01-15T13:38:58;20.90;34.90
34815;DHT22;21030;53.912;15.214;2023-01-15T13:41:30;21.60;34.80
34815;DHT22;21030;53.912;15.214;2023-01-15T13:44:18;21.40;34.20
34815;DHT22;21030;53.912;15.214;2023-01-15T13:47:07;21.40;34.00
34815;DHT22;21030;53.912;15.214;2023-01-15T13:49:41;21.90;33.80
34815;DHT22;21030;53.912;15.214;2023-01-15T13:52:23;21.70;33.70
34815;DHT22;21030;53.912;15.214;2023-01-15T13:54:51;20.70;34.90
34815;DHT22;21030;53.912;15.214;2023-01-15T13:59:50;20.70;35.20
34815;DHT22;21030;53.912;15.214;2023-01-15T14:02:38;21.20;34.80
34815;DHT22;21030;53.912;15.214;2023-01-15T14:05:26;22.00;33.20
34815;DHT22;21030;53.912;15.214;2023-01-15T14:07:54;21.80;33.40
34815;DHT22;21030;53.912;15.214;2023-01-15T14:10:31;21.70;32.80
34815;DHT22;21030;53.912;15.214;2023-01-15T14:16:14;23.10;30.90
34815;DHT22;21030;53.912;15.214;2023-01-15T14:25:44;23.20;29.60
34815;DHT22;21030;53.912;15.214;2023-01-15T14:30:39;21.60;31.50
34815;DHT22;21030;53.912;15.214;2023-01-15T14:33:29;21.00;32.50
34815;DHT22;21030;53.912;15.214;2023-01-15T14:36:26;21.00;32.40
34815;DHT22;21030;53.912;15.214;2023-01-15T14:38:59;20.50;32.80
34815;DHT22;21030;53.912;15.214;2023-01-15T14:41:32;20.20;33.70
34815;DHT22;21030;53.912;15.214;2023-01-15T14:44:32;20.50;33.30
34815;DHT22;21030;53.912;15.214;2023-01-15T14:47:02;19.80;34.50
34815;DHT22;21030;53.912;15.214;2023-01-15T14:49:43;19.30;34.80
34815;DHT22;21030;53.912;15.214;2023-01-15T14:52:22;18.90;35.40
34815;DHT22;21030;53.912;15.214;2023-01-15T14:54:51;19.10;35.70
34815;DHT22;21030;53.912;15.214;2023-01-15T14:57:21;20.20;34.30
34815;DHT22;21030;53.912;15.214;2023-01-15T14:59:56;20.20;33.00
34815;DHT22;21030;53.912;15.214;2023-01-15T15:02:36;19.90;33.70
34815;DHT22;21030;53.912;15.214;2023-01-15T15:05:05;18.90;34.60
34815;DHT22;21030;53.912;15.214;2023-01-15T15:07:43;18.40;36.40
34815;DHT22;21030;53.912;15.214;2023-01-15T15:10:22;19.10;35.80
34815;DHT22;21030;53.912;15.214;2023-01-15T15:16:07;19.90;34.00
34815;DHT22;21030;53.912;15.214;2023-01-15T15:18:44;19.90;33.70
34815;DHT22;21030;53.912;15.214;2023-01-15T15:21:26;20.30;33.20
34815;DHT22;21030;53.912;15.214;2023-01-15T15:24:19;19.60;34.10
34815;DHT22;21030;53.912;15.214;2023-01-15T15:26:47;19.90;33.90
34815;DHT22;21030;53.912;15.214;2023-01-15T15:29:16;19.30;34.50
34815;DHT22;21030;53.912;15.214;2023-01-15T15:32:02;19.40;34.60
34815;DHT22;21030;53.912;15.214;2023-01-15T15:34:37;19.10;34.80
34815;DHT22;21030;53.912;15.214;2023-01-15T15:37:16;18.80;34.60
34815;DHT22;21030;53.912;15.214;2023-01-15T15:39:52;18.90;34.80
34815;DHT22;21030;53.912;15.214;2023-01-15T15:42:33;19.10;35.10
34815;DHT22;21030;53.912;15.214;2023-01-15T15:45:25;19.80;33.70
34815;DHT22;21030;53.912;15.214;2023-01-15T15:48:17;19.80;33.80
34815;DHT22;21030;53.912;15.214;2023-01-15T15:51:05;19.00;34.10
34815;DHT22;21030;53.912;15.214;2023-01-15T15:53:32;18.50;35.50
34815;DHT22;21030;53.912;15.214;2023-01-15T15:55:59;18.20;36.50
34815;DHT22;21030;53.912;15.214;2023-01-15T15:58:32;18.40;35.70
34815;DHT22;21030;53.912;15.214;2023-01-15T16:01:01;18.50;36.00
34815;DHT22;21030;53.912;15.214;2023-01-15T16:03:30;18.90;35.00
34815;DHT22;21030;53.912;15.214;2023-01-15T16:06:01;18.90;34.80
34815;DHT22;21030;53.912;15.214;2023-01-15T16:08:32;18.60;34.90
34815;DHT22;21030;53.912;15.214;2023-01-15T16:11:04;18.10;36.20
34815;DHT22;21030;53.912;15.214;2023-01-15T16:16:07;18.40;35.40
34815;DHT22;21030;53.912;15.214;2023-01-15T16:18:36;17.40;37.10
34815;DHT22;21030;53.912;15.214;2023-01-15T16:21:08;18.00;36.70
34815;DHT22;21030;53.912;15.214;2023-01-15T16:23:35;18.50;36.20
34815;DHT22;21030;53.912;15.214;2023-01-15T16:26:27;18.80;35.60
34815;DHT22;21030;53.912;15.214;2023-01-15T16:28:56;18.80;35.20
34815;DHT22;21030;53.912;15.214;2023-01-15T16:31:25;19.30;34.30
34815;DHT22;21030;53.912;15.214;2023-01-15T16:33:56;18.80;35.30
34815;DHT22;21030;53.912;15.214;2023-01-15T16:36:26;19.10;34.80
34815;DHT22;21030;53.912;15.214;2023-01-15T16:38:54;18.50;35.30
34815;DHT22;21030;53.912;15.214;2023-01-15T16:41:27;18.70;35.20
34815;DHT22;21030;53.912;15.214;2023-01-15T16:44:03;18.00;35.80
34815;DHT22;21030;53.912;15.214;2023-01-15T16:46:38;18.50;36.00
34815;DHT22;21030;53.912;15.214;2023-01-15T16:49:24;19.00;34.90
34815;DHT22;21030;53.912;15.214;2023-01-15T16:51:53;19.30;34.00
34815;DHT22;21030;53.912;15.214;2023-01-15T16:56:57;19.30;33.50
34815;DHT22;21030;53.912;15.214;2023-01-15T17:02:15;19.70;33.50
34815;DHT22;21030;53.912;15.214;2023-01-15T17:04:44;19.90;33.20
34815;DHT22;21030;53.912;15.214;2023-01-15T17:07:30;20.10;32.70
34815;DHT22;21030;53.912;15.214;2023-01-15T17:10:01;19.90;32.90
34815;DHT22;21030;53.912;15.214;2023-01-15T17:12:29;18.80;34.90
34815;DHT22;21030;53.912;15.214;2023-01-15T17:17:50;18.80;35.00
34815;DHT22;21030;53.912;15.214;2023-01-15T17:20:19;18.80;34.80
34815;DHT22;21030;53.912;15.214;2023-01-15T17:22:48;18.40;35.20
34815;DHT22;21030;53.912;15.214;2023-01-15T17:27:48;18.90;34.60
34815;DHT22;21030;53.912;15.214;2023-01-15T17:30:16;18.40;35.20
34815;DHT22;21030;53.912;15.214;2023-01-15T17:32:43;18.70;35.30
34815;DHT22;21030;53.912;15.214;2023-01-15T17:35:21;18.10;35.50
34815;DHT22;21030;53.912;15.214;2023-01-15T17:37:48;18.70;35.10
34815;DHT22;21030;53.912;15.214;2023-01-15T17:40:16;18.60;35.20